Time;durP1;ratioP1;P1;durP2;ratioP2;P2;SDS_P1;SDS_P2;PMS_P1;PMS_P2;Temp;Humidity;BMP_temperature;BMP_pressure;BME280_temperature;BME280_humidity;BME280_pressure;Samples;Min_cycle;Max_cycle;Signal;HPM_P1;HPM_P2
2022/12/27 00:02:03;;;;;;;6.95;2.40;;;;;;;;;;7390103;19;20003;-74
2022/12/27 00:04:28;;;;;;;6.88;2.28;;;;;;;;;;7388430;19;19998;-74
2022/12/27 00:06:54;;;;;;;5.80;2.00;;;;;;;;;;7388035;19;20078;-75
2022/12/27 00:09:19;;;;;;;5.75;2.22;;;;;;;;;;7389751;19;20010;-75
2022/12/27 00:11:45;;;;;;;7.75;2.28;;;;;;;;;;7387503;19;20098;-74
2022/12/27 00:14:11;;;;;;;4.97;2.20;;;;;;;;;;7388211;19;20026;-75
2022/12/27 00:16:36;;;;;;;3.35;2.10;;;;;;;;;;7389169;19;20006;-74
2022/12/27 00:19:02;;;;;;;3.28;2.08;;;;;;;;;;7389631;19;20349;-75
2022/12/27 00:21:28;;;;;;;3.22;1.98;;;;;;;;;;7385833;19;20006;-75
2022/12/27 00:23:54;;;;;;;2.63;1.58;;;;;;;;;;7386263;19;20569;-75
2022/12/27 00:26:23;;;;;;;6.85;2.30;;;;;;;;;;7387625;19;19999;-75
2022/12/27 00:28:48;;;;;;;6.55;2.35;;;;;;;;;;7389307;19;20456;-74
2022/12/27 00:31:15;;;;;;;4.55;1.80;;;;;;;;;;7390048;19;20019;-75
2022/12/27 00:33:42;;;;;;;8.00;2.45;;;;;;;;;;7387710;19;20464;-75
2022/12/27 00:36:10;;;;;;;5.00;1.95;;;;;;;;;;7389124;19;20006;-75
2022/12/27 00:38:35;;;;;;;6.03;1.90;;;;;;;;;;7386894;19;20007;-75
2022/12/27 00:41:02;;;;;;;3.08;1.90;;;;;;;;;;7387403;19;19999;-75
2022/12/27 00:43:27;;;;;;;6.78;1.92;;;;;;;;;;7387805;19;20325;-76
2022/12/27 00:45:53;;;;;;;5.22;2.30;;;;;;;;;;7388713;19;19994;-76
2022/12/27 00:48:19;;;;;;;6.43;1.85;;;;;;;;;;7388827;19;20460;-75
2022/12/27 00:50:44;;;;;;;6.95;1.90;;;;;;;;;;7390114;19;20032;-75
2022/12/27 00:53:10;;;;;;;3.33;1.63;;;;;;;;;;7395206;19;19999;-75
2022/12/27 00:55:36;;;;;;;2.42;1.50;;;;;;;;;;7395285;19;20007;-76
2022/12/27 00:58:02;;;;;;;4.88;1.85;;;;;;;;;;7394112;19;20066;-76
2022/12/27 01:00:28;;;;;;;3.67;1.40;;;;;;;;;;7393128;19;20003;-74
2022/12/27 01:02:53;;;;;;;3.35;1.58;;;;;;;;;;7394052;19;20026;-74
2022/12/27 01:05:19;;;;;;;8.82;1.60;;;;;;;;;;7396181;19;19991;-74
2022/12/27 01:07:44;;;;;;;3.90;1.60;;;;;;;;;;7395510;19;20002;-75
2022/12/27 01:10:10;;;;;;;2.85;1.20;;;;;;;;;;7394452;19;20400;-74
2022/12/27 01:12:36;;;;;;;4.80;1.60;;;;;;;;;;7394128;19;19998;-74
2022/12/27 01:15:03;;;;;;;3.20;1.58;;;;;;;;;;7395202;19;19995;-75
2022/12/27 01:17:28;;;;;;;2.50;1.40;;;;;;;;;;7394250;19;20002;-75
2022/12/27 01:22:22;;;;;;;5.10;1.48;;;;;;;;;;7395405;19;20344;-74
2022/12/27 01:24:47;;;;;;;1.40;1.30;;;;;;;;;;7394793;19;20007;-73
2022/12/27 01:27:12;;;;;;;5.60;1.55;;;;;;;;;;7395454;19;20002;-74
2022/12/27 01:29:38;;;;;;;2.60;1.48;;;;;;;;;;7395789;19;20011;-74
2022/12/27 01:32:03;;;;;;;3.05;1.40;;;;;;;;;;7393075;19;20002;-73
2022/12/27 01:34:29;;;;;;;3.40;1.25;;;;;;;;;;7393306;19;19998;-73
2022/12/27 01:36:54;;;;;;;2.95;1.40;;;;;;;;;;7400079;19;19995;-72
2022/12/27 01:39:19;;;;;;;7.38;1.42;;;;;;;;;;7395341;19;20409;-74
2022/12/27 01:47:26;;;;;;;1.77;1.20;;;;;;;;;;7394644;19;20005;-73
2022/12/27 01:50:10;;;;;;;3.80;1.50;;;;;;;;;;7394725;19;20006;-73
2022/12/27 01:52:55;;;;;;;2.83;1.38;;;;;;;;;;7393366;19;20080;-73
2022/12/27 01:55:23;;;;;;;4.03;1.10;;;;;;;;;;7394313;19;20024;-73
2022/12/27 01:57:52;;;;;;;1.70;1.13;;;;;;;;;;7394063;19;19999;-73
2022/12/27 02:00:18;;;;;;;2.53;0.95;;;;;;;;;;7394242;19;20005;-73
2022/12/27 02:02:43;;;;;;;3.08;1.20;;;;;;;;;;7392752;19;19999;-73
2022/12/27 02:05:13;;;;;;;1.27;1.15;;;;;;;;;;7393758;19;20472;-73
2022/12/27 02:08:18;;;;;;;2.25;1.27;;;;;;;;;;7393640;19;20465;-73
2022/12/27 02:10:44;;;;;;;6.07;1.33;;;;;;;;;;7390585;19;19994;-73
2022/12/27 02:13:10;;;;;;;2.15;1.20;;;;;;;;;;7392133;19;19990;-72
2022/12/27 02:15:35;;;;;;;3.92;1.23;;;;;;;;;;7393607;19;20006;-73
2022/12/27 02:18:00;;;;;;;2.10;1.30;;;;;;;;;;7392106;19;20003;-74
2022/12/27 02:20:33;;;;;;;2.17;1.20;;;;;;;;;;7392643;19;19994;-73
2022/12/27 02:26:37;;;;;;;4.50;1.30;;;;;;;;;;7393218;19;20019;-72
2022/12/27 02:29:35;;;;;;;1.83;1.30;;;;;;;;;;7393431;19;20070;-74
2022/12/27 02:32:22;;;;;;;1.67;1.05;;;;;;;;;;7391799;19;19998;-72
2022/12/27 02:34:56;;;;;;;4.70;1.08;;;;;;;;;;7397248;19;19990;-74
2022/12/27 02:37:25;;;;;;;2.00;0.80;;;;;;;;;;7392503;19;19994;-73
2022/12/27 02:39:52;;;;;;;5.18;1.50;;;;;;;;;;7393579;19;20341;-73
2022/12/27 02:53:56;;;;;;;1.35;1.02;;;;;;;;;;7390839;19;20005;-73
2022/12/27 02:57:07;;;;;;;2.95;1.23;;;;;;;;;;7391498;19;20334;-74
2022/12/27 03:03:27;;;;;;;5.68;0.95;;;;;;;;;;7395931;19;20124;-74
2022/12/27 03:08:56;;;;;;;2.40;1.30;;;;;;;;;;7392120;19;20328;-73
2022/12/27 03:17:13;;;;;;;1.73;0.90;;;;;;;;;;7391821;19;20020;-74
2022/12/27 03:25:28;;;;;;;5.90;1.08;;;;;;;;;;7393020;19;20028;-73
2022/12/27 03:33:42;;;;;;;4.47;1.20;;;;;;;;;;7390746;19;20446;-74
2022/12/27 03:39:24;;;;;;;3.08;1.23;;;;;;;;;;7391704;19;20016;-73
2022/12/27 03:44:43;;;;;;;4.60;1.30;;;;;;;;;;7390136;19;20006;-73
2022/12/27 03:47:20;;;;;;;4.70;0.93;;;;;;;;;;7389722;19;20464;-73
2022/12/27 03:50:18;;;;;;;5.70;1.73;;;;;;;;;;7390811;19;19994;-74
2022/12/27 03:52:55;;;;;;;3.95;1.30;;;;;;;;;;7389456;19;19995;-72
2022/12/27 03:55:21;;;;;;;2.17;1.10;;;;;;;;;;7390888;19;20071;-74
2022/12/27 03:57:46;;;;;;;7.43;1.38;;;;;;;;;;7390101;19;19997;-75
2022/12/27 04:00:12;;;;;;;2.25;1.35;;;;;;;;;;7388783;19;19996;-73
2022/12/27 04:02:38;;;;;;;5.10;1.42;;;;;;;;;;7389145;19;19994;-73
2022/12/27 04:05:03;;;;;;;6.55;1.73;;;;;;;;;;7390530;19;19991;-74
2022/12/27 04:07:28;;;;;;;5.63;1.52;;;;;;;;;;7390385;19;19994;-74
2022/12/27 04:34:39;;;;;;;6.60;1.50;;;;;;;;;;7397270;19;20078;-74
2022/12/27 04:37:05;;;;;;;4.13;1.48;;;;;;;;;;7396931;19;20006;-72
2022/12/27 04:39:31;;;;;;;3.45;1.65;;;;;;;;;;7397216;19;20003;-73
2022/12/27 04:55:43;;;;;;;3.30;1.67;;;;;;;;;;7397936;19;20436;-74
2022/12/27 04:58:08;;;;;;;3.28;1.42;;;;;;;;;;7394762;19;19990;-74
2022/12/27 05:03:22;;;;;;;3.50;1.33;;;;;;;;;;7395221;19;20471;-74
2022/12/27 05:05:49;;;;;;;5.32;1.63;;;;;;;;;;7396231;19;19997;-73
2022/12/27 05:13:58;;;;;;;3.83;1.50;;;;;;;;;;7394915;19;20333;-74
2022/12/27 05:16:34;;;;;;;2.27;1.40;;;;;;;;;;7395927;19;20093;-73
2022/12/27 05:18:59;;;;;;;3.45;1.42;;;;;;;;;;7393232;19;19995;-74
2022/12/27 05:21:25;;;;;;;6.10;1.77;;;;;;;;;;7397383;19;20029;-73
2022/12/27 05:26:37;;;;;;;6.97;1.73;;;;;;;;;;7395975;19;20016;-74
2022/12/27 05:29:04;;;;;;;5.00;1.85;;;;;;;;;;7395747;19;19999;-74
2022/12/27 05:31:29;;;;;;;4.30;1.80;;;;;;;;;;7393785;19;20003;-74
2022/12/27 05:33:54;;;;;;;6.40;1.65;;;;;;;;;;7394382;19;20054;-74
2022/12/27 05:36:20;;;;;;;3.78;1.77;;;;;;;;;;7392859;19;20464;-73
2022/12/27 05:38:46;;;;;;;6.35;1.85;;;;;;;;;;7393274;19;19994;-74
2022/12/27 05:41:12;;;;;;;8.23;2.00;;;;;;;;;;7393795;19;19995;-74
2022/12/27 05:43:37;;;;;;;4.93;1.88;;;;;;;;;;7393731;19;20044;-72
2022/12/27 05:46:05;;;;;;;4.97;1.65;;;;;;;;;;7395128;19;19999;-74
2022/12/27 05:48:31;;;;;;;3.92;1.98;;;;;;;;;;7394819;19;20093;-73
2022/12/27 05:50:57;;;;;;;10.27;2.00;;;;;;;;;;7393793;19;20662;-74
2022/12/27 05:53:22;;;;;;;7.57;1.90;;;;;;;;;;7393859;19;19994;-73
2022/12/27 05:55:55;;;;;;;4.05;1.90;;;;;;;;;;7394655;19;20007;-74
2022/12/27 05:58:21;;;;;;;5.68;2.38;;;;;;;;;;7392719;19;20033;-74
2022/12/27 06:00:46;;;;;;;2.42;1.50;;;;;;;;;;7393416;19;19998;-74
2022/12/27 06:03:11;;;;;;;5.72;2.08;;;;;;;;;;7391669;19;20337;-73
2022/12/27 06:05:37;;;;;;;7.60;1.95;;;;;;;;;;7392701;19;20103;-72
2022/12/27 06:08:02;;;;;;;5.63;1.80;;;;;;;;;;7394220;19;20179;-72
2022/12/27 06:10:27;;;;;;;7.20;1.83;;;;;;;;;;7393687;19;19995;-74
2022/12/27 06:12:53;;;;;;;5.07;1.65;;;;;;;;;;7392756;19;19991;-74
2022/12/27 06:15:18;;;;;;;4.57;1.80;;;;;;;;;;7394133;19;20002;-73
2022/12/27 06:17:43;;;;;;;12.35;2.05;;;;;;;;;;7392752;19;19990;-73
2022/12/27 06:20:09;;;;;;;6.60;1.75;;;;;;;;;;7397229;19;19995;-73
2022/12/27 06:22:35;;;;;;;6.07;2.20;;;;;;;;;;7392324;19;20033;-74
2022/12/27 06:25:00;;;;;;;10.50;2.42;;;;;;;;;;7393886;19;19998;-73
2022/12/27 06:27:25;;;;;;;4.13;1.80;;;;;;;;;;7393825;19;19991;-74
2022/12/27 06:29:51;;;;;;;5.47;1.90;;;;;;;;;;7393934;19;20453;-74
2022/12/27 06:32:16;;;;;;;4.32;1.80;;;;;;;;;;7393305;19;20079;-74
2022/12/27 06:34:42;;;;;;;4.03;1.73;;;;;;;;;;7390699;19;20003;-74
2022/12/27 06:37:07;;;;;;;5.93;2.00;;;;;;;;;;7391755;19;20006;-73
2022/12/27 06:39:33;;;;;;;5.03;1.58;;;;;;;;;;7393557;19;20027;-74
2022/12/27 06:41:58;;;;;;;8.77;2.35;;;;;;;;;;7391791;19;19986;-74
2022/12/27 06:44:25;;;;;;;4.45;1.88;;;;;;;;;;7391528;19;19995;-73
2022/12/27 06:46:50;;;;;;;6.25;1.90;;;;;;;;;;7393385;19;20002;-74
2022/12/27 06:49:15;;;;;;;4.47;2.70;;;;;;;;;;7391322;19;20019;-72
2022/12/27 06:51:40;;;;;;;7.38;2.38;;;;;;;;;;7390216;19;19987;-74
2022/12/27 06:54:06;;;;;;;5.35;2.05;;;;;;;;;;7389949;19;19990;-74
2022/12/27 06:56:31;;;;;;;6.97;1.90;;;;;;;;;;7392763;19;20015;-74
2022/12/27 06:58:57;;;;;;;3.97;1.95;;;;;;;;;;7391321;19;19990;-73
2022/12/27 07:01:25;;;;;;;5.28;1.80;;;;;;;;;;7392026;19;20532;-74
2022/12/27 07:03:52;;;;;;;6.88;2.25;;;;;;;;;;7390325;19;20002;-74
2022/12/27 07:06:19;;;;;;;4.07;2.08;;;;;;;;;;7392697;19;20021;-74
2022/12/27 07:08:45;;;;;;;7.35;2.45;;;;;;;;;;7392802;19;19998;-74
2022/12/27 07:11:12;;;;;;;6.13;1.80;;;;;;;;;;7391308;19;20553;-74
2022/12/27 07:13:44;;;;;;;10.15;2.13;;;;;;;;;;7389412;19;19991;-74
2022/12/27 07:16:12;;;;;;;5.68;2.10;;;;;;;;;;7392129;19;20024;-74
2022/12/27 07:18:37;;;;;;;5.45;2.05;;;;;;;;;;7394350;19;20037;-73
2022/12/27 07:21:08;;;;;;;3.65;1.85;;;;;;;;;;7390574;19;19998;-74
2022/12/27 07:23:34;;;;;;;9.68;2.10;;;;;;;;;;7394202;19;19995;-73
2022/12/27 07:26:04;;;;;;;6.30;2.20;;;;;;;;;;7390033;19;20002;-73
2022/12/27 07:28:30;;;;;;;4.30;2.08;;;;;;;;;;7391891;19;20019;-74
2022/12/27 07:30:55;;;;;;;8.27;1.83;;;;;;;;;;7390932;19;20002;-73
2022/12/27 07:33:21;;;;;;;5.43;1.95;;;;;;;;;;7390806;19;19991;-74
2022/12/27 07:35:46;;;;;;;7.45;1.95;;;;;;;;;;7391884;19;20451;-73
2022/12/27 07:38:11;;;;;;;9.40;2.70;;;;;;;;;;7390599;19;20462;-72
2022/12/27 07:40:36;;;;;;;5.70;2.05;;;;;;;;;;7389398;19;19994;-74
2022/12/27 07:43:02;;;;;;;5.22;2.00;;;;;;;;;;7390629;19;20002;-72
2022/12/27 07:45:28;;;;;;;6.10;2.08;;;;;;;;;;7389854;19;20007;-75
2022/12/27 07:47:53;;;;;;;6.97;2.22;;;;;;;;;;7391152;19;20001;-74
2022/12/27 07:50:18;;;;;;;5.32;2.40;;;;;;;;;;7389514;19;20074;-72
2022/12/27 07:52:44;;;;;;;6.32;2.25;;;;;;;;;;7389901;19;20002;-74
2022/12/27 07:55:09;;;;;;;3.50;1.98;;;;;;;;;;7391212;19;19991;-73
2022/12/27 07:57:34;;;;;;;7.45;2.25;;;;;;;;;;7390394;19;20494;-75
2022/12/27 07:59:59;;;;;;;6.90;2.20;;;;;;;;;;7392778;19;20106;-74
2022/12/27 08:02:25;;;;;;;7.43;2.30;;;;;;;;;;7398060;19;19995;-74
2022/12/27 08:04:50;;;;;;;9.18;2.10;;;;;;;;;;7396958;19;19999;-74
2022/12/27 08:07:18;;;;;;;5.10;1.90;;;;;;;;;;7398407;19;20001;-74
2022/12/27 08:09:45;;;;;;;6.05;1.88;;;;;;;;;;7399092;19;20452;-73
2022/12/27 08:12:12;;;;;;;10.77;2.15;;;;;;;;;;7398142;19;20007;-72
2022/12/27 08:14:38;;;;;;;8.20;2.08;;;;;;;;;;7397194;19;19995;-74
2022/12/27 08:17:25;;;;;;;4.80;1.80;;;;;;;;;;7396549;19;20012;-74
2022/12/27 08:19:52;;;;;;;9.00;2.25;;;;;;;;;;7397789;19;20027;-72
2022/12/27 08:22:17;;;;;;;3.80;1.60;;;;;;;;;;7398013;19;19994;-73
2022/12/27 08:24:43;;;;;;;6.78;2.42;;;;;;;;;;7397371;19;20508;-74
2022/12/27 08:27:09;;;;;;;9.20;2.17;;;;;;;;;;7401255;19;20000;-74
2022/12/27 08:29:34;;;;;;;5.35;1.58;;;;;;;;;;7398682;19;20470;-74
2022/12/27 08:32:00;;;;;;;6.25;1.85;;;;;;;;;;7396339;19;20448;-74
2022/12/27 08:34:25;;;;;;;14.13;1.92;;;;;;;;;;7396888;19;19995;-74
2022/12/27 08:36:51;;;;;;;6.30;1.80;;;;;;;;;;7397469;19;20468;-73
2022/12/27 08:39:16;;;;;;;3.10;1.40;;;;;;;;;;7397636;19;19999;-73
2022/12/27 08:41:42;;;;;;;9.05;2.08;;;;;;;;;;7395210;19;20002;-73
2022/12/27 08:44:08;;;;;;;4.85;2.00;;;;;;;;;;7396345;19;20078;-74
2022/12/27 08:46:34;;;;;;;5.25;1.98;;;;;;;;;;7395707;19;19990;-74
2022/12/27 08:48:59;;;;;;;5.32;1.80;;;;;;;;;;7397769;19;19995;-74
2022/12/27 08:51:25;;;;;;;5.82;1.70;;;;;;;;;;7393921;19;20009;-73
2022/12/27 08:53:50;;;;;;;6.53;2.10;;;;;;;;;;7395743;19;20002;-74
2022/12/27 08:56:15;;;;;;;5.45;2.00;;;;;;;;;;7396827;19;19995;-73
2022/12/27 08:58:41;;;;;;;5.93;1.60;;;;;;;;;;7394527;19;19991;-73
2022/12/27 09:01:07;;;;;;;8.30;1.80;;;;;;;;;;7395924;19;20002;-74
2022/12/27 09:03:33;;;;;;;4.20;2.10;;;;;;;;;;7395264;19;20496;-74
2022/12/27 09:06:07;;;;;;;7.47;2.20;;;;;;;;;;7395175;19;20019;-73
2022/12/27 09:08:32;;;;;;;5.75;2.10;;;;;;;;;;7396324;19;20054;-74
2022/12/27 09:11:07;;;;;;;3.80;1.80;;;;;;;;;;7394148;19;19995;-73
2022/12/27 09:13:32;;;;;;;4.38;2.20;;;;;;;;;;7394347;19;19999;-74
2022/12/27 09:15:57;;;;;;;6.50;2.10;;;;;;;;;;7396501;19;20001;-73
2022/12/27 09:18:22;;;;;;;4.65;1.70;;;;;;;;;;7394380;19;19994;-72
2022/12/27 09:20:48;;;;;;;9.35;2.20;;;;;;;;;;7395058;19;19994;-74
2022/12/27 09:23:13;;;;;;;7.00;1.98;;;;;;;;;;7393322;19;19991;-74
2022/12/27 09:25:38;;;;;;;3.60;1.58;;;;;;;;;;7394979;19;20103;-73
2022/12/27 09:28:04;;;;;;;5.57;2.03;;;;;;;;;;7394359;19;20307;-74
2022/12/27 09:30:29;;;;;;;6.80;2.15;;;;;;;;;;7394927;19;20005;-74
2022/12/27 09:32:56;;;;;;;6.63;2.40;;;;;;;;;;7398492;19;19998;-74
2022/12/27 09:35:22;;;;;;;5.75;2.00;;;;;;;;;;7395774;19;20078;-73
2022/12/27 09:37:47;;;;;;;5.60;1.88;;;;;;;;;;7394503;19;20022;-74
2022/12/27 09:40:16;;;;;;;6.88;2.10;;;;;;;;;;7393735;19;20347;-72
2022/12/27 09:42:50;;;;;;;6.28;2.08;;;;;;;;;;7394108;19;20532;-74
2022/12/27 09:45:32;;;;;;;5.88;2.45;;;;;;;;;;7396787;19;20469;-74
2022/12/27 09:48:09;;;;;;;6.00;2.53;;;;;;;;;;7392250;19;20070;-72
2022/12/27 09:50:53;;;;;;;5.78;2.20;;;;;;;;;;7394759;19;20006;-74
2022/12/27 09:53:27;;;;;;;4.95;2.60;;;;;;;;;;7393376;19;20002;-73
2022/12/27 09:55:56;;;;;;;3.67;1.80;;;;;;;;;;7394744;19;20017;-72
2022/12/27 09:58:37;;;;;;;8.65;2.35;;;;;;;;;;7394084;19;20011;-72
2022/12/27 10:01:16;;;;;;;5.43;2.27;;;;;;;;;;7394310;19;20010;-73
2022/12/27 10:03:41;;;;;;;6.65;2.22;;;;;;;;;;7393486;19;20003;-72
2022/12/27 10:06:09;;;;;;;5.35;2.10;;;;;;;;;;7394700;19;20006;-74
2022/12/27 10:09:16;;;;;;;7.40;2.28;;;;;;;;;;7394209;19;20002;-73
2022/12/27 10:11:51;;;;;;;6.88;1.95;;;;;;;;;;7390446;19;19995;-73
2022/12/27 10:14:58;;;;;;;8.40;2.00;;;;;;;;;;7393094;19;20023;-72
2022/12/27 10:17:48;;;;;;;9.77;2.55;;;;;;;;;;7393459;19;20039;-74
2022/12/27 10:20:41;;;;;;;7.20;2.30;;;;;;;;;;7391667;19;20003;-74
2022/12/27 10:23:13;;;;;;;12.05;2.65;;;;;;;;;;7390263;19;20005;-73
2022/12/27 10:25:39;;;;;;;5.10;2.33;;;;;;;;;;7393319;19;20002;-73
2022/12/27 10:28:28;;;;;;;5.63;2.00;;;;;;;;;;7392309;19;20005;-74
2022/12/27 10:30:54;;;;;;;5.40;2.15;;;;;;;;;;7392639;19;19998;-72
2022/12/27 10:33:28;;;;;;;5.50;1.92;;;;;;;;;;7391771;19;20002;-73
2022/12/27 10:35:55;;;;;;;5.43;2.33;;;;;;;;;;7393568;19;20014;-73
2022/12/27 10:38:20;;;;;;;5.07;2.17;;;;;;;;;;7392250;19;20531;-73
2022/12/27 10:41:14;;;;;;;4.57;1.98;;;;;;;;;;7392635;19;20002;-73
2022/12/27 10:43:42;;;;;;;5.88;2.17;;;;;;;;;;7389844;19;19999;-73
2022/12/27 10:46:37;;;;;;;8.88;2.13;;;;;;;;;;7391326;19;20002;-73
2022/12/27 10:49:06;;;;;;;6.72;2.15;;;;;;;;;;7392102;19;20382;-73
2022/12/27 10:51:38;;;;;;;4.80;1.73;;;;;;;;;;7390017;19;20362;-74
2022/12/27 10:54:15;;;;;;;3.85;1.77;;;;;;;;;;7392103;19;20007;-71
2022/12/27 10:56:43;;;;;;;7.65;2.00;;;;;;;;;;7392043;19;19994;-73
2022/12/27 10:59:18;;;;;;;4.75;2.00;;;;;;;;;;7390667;19;20010;-72
2022/12/27 11:01:45;;;;;;;9.90;2.00;;;;;;;;;;7391991;19;19999;-72
2022/12/27 11:04:13;;;;;;;7.47;2.33;;;;;;;;;;7394802;19;20545;-72
2022/12/27 11:06:40;;;;;;;6.75;2.15;;;;;;;;;;7396631;19;20024;-72
2022/12/27 11:09:34;;;;;;;6.05;2.03;;;;;;;;;;7395027;19;19994;-73
2022/12/27 11:12:23;;;;;;;4.97;1.90;;;;;;;;;;7391401;19;20023;-72
2022/12/27 11:15:01;;;;;;;8.15;2.13;;;;;;;;;;7392112;19;20009;-72
2022/12/27 11:17:35;;;;;;;5.95;2.13;;;;;;;;;;7391755;19;19999;-73
2022/12/27 11:20:14;;;;;;;6.85;2.10;;;;;;;;;;7391826;19;20330;-74
2022/12/27 11:22:54;;;;;;;7.07;1.90;;;;;;;;;;7389435;19;20002;-74
2022/12/27 11:25:21;;;;;;;5.30;1.77;;;;;;;;;;7392041;19;20103;-73
2022/12/27 11:27:50;;;;;;;6.72;2.00;;;;;;;;;;7396518;19;20003;-72
2022/12/27 11:30:37;;;;;;;5.43;1.95;;;;;;;;;;7391609;19;20003;-74
2022/12/27 11:33:06;;;;;;;4.97;1.80;;;;;;;;;;7390747;19;20006;-74
2022/12/27 11:35:42;;;;;;;6.43;2.05;;;;;;;;;;7395356;19;20009;-73
2022/12/27 11:38:21;;;;;;;6.90;1.92;;;;;;;;;;7390657;19;20032;-73
2022/12/27 11:41:14;;;;;;;4.10;2.30;;;;;;;;;;7390858;19;20174;-74
2022/12/27 11:44:13;;;;;;;7.70;1.73;;;;;;;;;;7388578;19;19998;-73
2022/12/27 11:46:53;;;;;;;6.70;1.67;;;;;;;;;;7391661;19;20475;-75
2022/12/27 11:49:22;;;;;;;5.85;2.10;;;;;;;;;;7391357;19;20002;-75
2022/12/27 11:52:21;;;;;;;5.57;1.80;;;;;;;;;;7389453;19;20008;-73
2022/12/27 11:55:09;;;;;;;7.57;1.88;;;;;;;;;;7390476;19;20353;-73
2022/12/27 11:58:12;;;;;;;5.07;2.00;;;;;;;;;;7389243;19;19990;-74
2022/12/27 12:00:52;;;;;;;5.18;1.65;;;;;;;;;;7390177;19;20434;-74
2022/12/27 12:03:58;;;;;;;8.10;2.25;;;;;;;;;;7389946;19;19999;-75
2022/12/27 12:06:57;;;;;;;5.35;1.65;;;;;;;;;;7391689;19;20015;-74
2022/12/27 12:09:44;;;;;;;5.88;1.95;;;;;;;;;;7390110;19;20002;-75
2022/12/27 12:12:29;;;;;;;8.23;1.85;;;;;;;;;;7387143;19;19999;-75
2022/12/27 12:14:54;;;;;;;6.45;1.92;;;;;;;;;;7390177;19;20066;-73
2022/12/27 12:17:45;;;;;;;11.00;2.30;;;;;;;;;;7393055;19;20037;-73
2022/12/27 12:20:28;;;;;;;6.20;2.03;;;;;;;;;;7389968;19;20020;-72
2022/12/27 12:22:54;;;;;;;4.75;2.17;;;;;;;;;;7389992;19;19999;-73
2022/12/27 12:25:19;;;;;;;8.27;2.15;;;;;;;;;;7391053;19;20175;-73
2022/12/27 12:28:12;;;;;;;8.93;1.92;;;;;;;;;;7390060;19;20074;-74
2022/12/27 12:30:53;;;;;;;3.90;2.00;;;;;;;;;;7389193;19;20001;-73
2022/12/27 12:33:50;;;;;;;3.80;1.92;;;;;;;;;;7389753;19;19991;-75
2022/12/27 12:36:34;;;;;;;9.73;1.80;;;;;;;;;;7390705;19;20345;-75
2022/12/27 12:39:28;;;;;;;7.40;2.15;;;;;;;;;;7386951;19;19999;-75
2022/12/27 12:42:13;;;;;;;7.57;2.05;;;;;;;;;;7388270;19;20476;-73
2022/12/27 12:44:58;;;;;;;5.32;2.20;;;;;;;;;;7386762;19;20023;-74
2022/12/27 12:47:49;;;;;;;7.18;1.95;;;;;;;;;;7393716;19;20355;-74
2022/12/27 12:50:49;;;;;;;6.07;2.05;;;;;;;;;;7394781;19;19998;-74
2022/12/27 12:53:33;;;;;;;8.55;2.03;;;;;;;;;;7395691;19;20007;-74
2022/12/27 12:56:24;;;;;;;5.90;1.83;;;;;;;;;;7397755;19;20020;-75
2022/12/27 12:59:17;;;;;;;5.35;1.73;;;;;;;;;;7394926;19;19998;-74
2022/12/27 13:02:10;;;;;;;5.78;2.03;;;;;;;;;;7394917;19;20095;-74
2022/12/27 13:05:03;;;;;;;4.72;1.85;;;;;;;;;;7394477;19;20525;-74
2022/12/27 13:07:46;;;;;;;9.13;2.20;;;;;;;;;;7396762;19;20089;-74
2022/12/27 13:10:14;;;;;;;6.78;1.85;;;;;;;;;;7395914;19;20007;-74
2022/12/27 13:12:53;;;;;;;4.25;1.65;;;;;;;;;;7395176;19;20006;-74
2022/12/27 13:15:52;;;;;;;6.60;1.52;;;;;;;;;;7396366;19;20003;-74
2022/12/27 13:18:40;;;;;;;6.10;2.30;;;;;;;;;;7399011;19;20062;-74
2022/12/27 13:21:11;;;;;;;4.97;1.92;;;;;;;;;;7394402;19;20019;-76
2022/12/27 13:24:13;;;;;;;4.13;1.60;;;;;;;;;;7394226;19;19994;-76
2022/12/27 13:26:59;;;;;;;5.22;1.80;;;;;;;;;;7394921;19;20460;-75
2022/12/27 13:29:42;;;;;;;5.18;2.10;;;;;;;;;;7393500;19;19995;-76
2022/12/27 13:32:28;;;;;;;11.80;2.42;;;;;;;;;;7392828;19;20017;-76
2022/12/27 13:35:23;;;;;;;5.15;2.13;;;;;;;;;;7392036;19;20007;-77
2022/12/27 13:38:02;;;;;;;3.17;1.63;;;;;;;;;;7393850;19;20350;-75
2022/12/27 13:40:27;;;;;;;4.57;1.95;;;;;;;;;;7394173;19;20139;-75
2022/12/27 13:43:05;;;;;;;7.85;2.22;;;;;;;;;;7395217;19;19994;-75
2022/12/27 13:45:53;;;;;;;7.00;2.20;;;;;;;;;;7394471;19;20016;-75
2022/12/27 13:48:31;;;;;;;3.78;1.70;;;;;;;;;;7394447;19;19998;-75
2022/12/27 13:51:23;;;;;;;3.50;1.80;;;;;;;;;;7393854;19;20009;-75
2022/12/27 13:54:26;;;;;;;5.20;2.00;;;;;;;;;;7392800;19;20002;-76
2022/12/27 13:57:25;;;;;;;6.32;1.77;;;;;;;;;;7393191;19;19990;-76
2022/12/27 14:00:16;;;;;;;13.43;2.28;;;;;;;;;;7393778;19;19999;-76
2022/12/27 14:03:23;;;;;;;6.35;1.95;;;;;;;;;;7390648;19;20057;-75
2022/12/27 14:06:17;;;;;;;8.75;1.85;;;;;;;;;;7391649;19;20005;-76
2022/12/27 14:08:57;;;;;;;8.02;2.00;;;;;;;;;;7393776;19;19999;-76
2022/12/27 14:11:53;;;;;;;5.47;2.10;;;;;;;;;;7394369;19;20086;-76
2022/12/27 14:14:20;;;;;;;6.18;1.98;;;;;;;;;;7392072;19;20002;-76
2022/12/27 14:16:58;;;;;;;8.27;1.90;;;;;;;;;;7392925;19;19995;-76
2022/12/27 14:19:40;;;;;;;6.78;2.00;;;;;;;;;;7395936;19;20002;-76
2022/12/27 14:22:44;;;;;;;4.65;2.03;;;;;;;;;;7391089;19;20090;-76
2022/12/27 14:25:39;;;;;;;5.55;2.17;;;;;;;;;;7389212;19;20580;-76
2022/12/27 14:28:35;;;;;;;7.72;2.53;;;;;;;;;;7392976;19;19994;-75
2022/12/27 14:31:24;;;;;;;4.68;2.30;;;;;;;;;;7390410;19;20462;-76
2022/12/27 14:34:08;;;;;;;7.20;2.40;;;;;;;;;;7391562;19;20400;-76
2022/12/27 14:37:07;;;;;;;3.95;1.90;;;;;;;;;;7392773;19;20028;-76
2022/12/27 14:40:05;;;;;;;5.70;2.42;;;;;;;;;;7392790;19;19998;-76
2022/12/27 14:42:30;;;;;;;5.25;1.92;;;;;;;;;;7386433;19;20134;-76
2022/12/27 14:45:17;;;;;;;6.07;2.03;;;;;;;;;;7391750;19;20026;-76
2022/12/27 14:48:06;;;;;;;5.45;2.33;;;;;;;;;;7392053;19;20464;-75
2022/12/27 14:50:50;;;;;;;7.55;2.58;;;;;;;;;;7391867;19;20002;-75
2022/12/27 14:53:39;;;;;;;4.95;2.00;;;;;;;;;;7385917;19;20010;-74
2022/12/27 14:56:15;;;;;;;6.43;2.33;;;;;;;;;;7388051;19;20219;-75
2022/12/27 14:59:02;;;;;;;6.70;2.90;;;;;;;;;;7387081;19;20034;-75
2022/12/27 15:01:51;;;;;;;11.52;2.67;;;;;;;;;;7392807;19;20010;-75
2022/12/27 15:04:50;;;;;;;5.20;2.70;;;;;;;;;;7393943;19;20118;-75
2022/12/27 15:07:33;;;;;;;8.48;2.70;;;;;;;;;;7394749;19;20043;-74
2022/12/27 15:10:19;;;;;;;12.65;3.60;;;;;;;;;;7388685;19;20032;-72
2022/12/27 15:12:51;;;;;;;10.00;2.80;;;;;;;;;;7393206;19;20046;-74
2022/12/27 15:15:34;;;;;;;4.97;2.60;;;;;;;;;;7394617;19;20011;-73
2022/12/27 15:18:14;;;;;;;7.22;2.70;;;;;;;;;;7392370;19;20047;-74
2022/12/27 15:20:46;;;;;;;5.55;2.50;;;;;;;;;;7390993;19;20366;-73
2022/12/27 15:23:20;;;;;;;;;;;;;;;;;;7393848;19;20047;-73
2022/12/27 15:26:08;;;;;;;6.82;2.90;;;;;;;;;;7395056;19;19915;-75
2022/12/27 15:29:20;;;;;;;;;;;;;;;;;;;;;
2022/12/27 15:31:50;;;;;;;9.20;2.80;;;;;;;;;;7388306;19;20074;-77
2022/12/27 15:34:47;;;;;;;6.85;2.60;;;;;;;;;;7373610;19;20487;-77
2022/12/27 15:37:46;;;;;;;7.15;2.42;;;;;;;;;;7384522;19;20476;-76
2022/12/27 15:40:34;;;;;;;11.43;2.60;;;;;;;;;;7385439;19;20007;-77
2022/12/27 15:43:08;;;;;;;12.60;2.88;;;;;;;;;;7378383;19;20023;-76
2022/12/27 15:45:39;;;;;;;5.70;2.55;;;;;;;;;;7386598;19;20006;-76
2022/12/27 15:48:48;;;;;;;7.85;3.03;;;;;;;;;;7386151;19;20527;-75
2022/12/27 15:51:30;;;;;;;6.07;2.53;;;;;;;;;;7387917;19;20006;-76
2022/12/27 15:54:08;;;;;;;6.70;2.30;;;;;;;;;;7384293;19;20014;-75
2022/12/27 15:56:48;;;;;;;6.57;2.83;;;;;;;;;;7388814;19;20077;-76
2022/12/27 16:00:07;;;;;;;9.25;2.65;;;;;;;;;;7384232;19;20104;-76
2022/12/27 16:02:47;;;;;;;7.63;3.05;;;;;;;;;;7380893;19;19999;-79
2022/12/27 16:05:21;;;;;;;10.02;3.03;;;;;;;;;;7386197;19;20044;-76
2022/12/27 16:07:50;;;;;;;8.75;2.95;;;;;;;;;;7389551;19;20479;-77
2022/12/27 16:10:46;;;;;;;7.03;3.00;;;;;;;;;;7386861;19;20041;-75
2022/12/27 16:13:18;;;;;;;7.53;2.83;;;;;;;;;;7386356;19;20006;-75
2022/12/27 16:16:07;;;;;;;5.53;2.88;;;;;;;;;;7387763;19;20003;-78
2022/12/27 16:18:44;;;;;;;7.88;2.97;;;;;;;;;;7383249;19;20031;-75
2022/12/27 16:21:22;;;;;;;7.72;3.22;;;;;;;;;;7387778;19;20583;-75
2022/12/27 16:23:59;;;;;;;8.48;3.42;;;;;;;;;;7395225;19;19999;-74
2022/12/27 16:26:27;;;;;;;11.05;3.60;;;;;;;;;;7395236;19;20458;-77
2022/12/27 16:29:02;;;;;;;8.65;3.42;;;;;;;;;;7396086;19;20003;-78
2022/12/27 16:31:33;;;;;;;10.43;3.63;;;;;;;;;;7391363;19;19999;-75
2022/12/27 16:34:12;;;;;;;12.23;3.58;;;;;;;;;;7391176;19;20006;-76
2022/12/27 16:36:43;;;;;;;11.18;3.47;;;;;;;;;;7392221;19;20002;-76
2022/12/27 16:39:14;;;;;;;8.82;3.35;;;;;;;;;;7391198;19;20010;-76
2022/12/27 16:41:55;;;;;;;7.90;3.55;;;;;;;;;;7396510;19;20014;-74
2022/12/27 16:44:23;;;;;;;8.43;3.70;;;;;;;;;;7397741;19;20028;-77
2022/12/27 16:46:55;;;;;;;13.30;3.47;;;;;;;;;;7394090;19;20114;-77
2022/12/27 16:49:53;;;;;;;11.10;3.92;;;;;;;;;;7397897;19;20023;-77
2022/12/27 16:52:40;;;;;;;13.85;3.67;;;;;;;;;;7392053;19;19999;-75
2022/12/27 16:55:21;;;;;;;8.38;3.92;;;;;;;;;;7393593;19;20009;-74
2022/12/27 16:57:48;;;;;;;14.55;3.72;;;;;;;;;;7394359;19;20003;-74
2022/12/27 17:00:54;;;;;;;12.75;4.15;;;;;;;;;;7395587;19;20073;-75
2022/12/27 17:03:20;;;;;;;9.05;3.65;;;;;;;;;;7393106;19;20037;-77
2022/12/27 17:05:48;;;;;;;11.07;3.78;;;;;;;;;;7400884;19;20002;-79
2022/12/27 17:08:16;;;;;;;7.07;3.45;;;;;;;;;;7397078;19;20013;-77
2022/12/27 17:10:49;;;;;;;8.57;4.15;;;;;;;;;;7398614;19;20023;-77